Racecast

Alexis Tarleton

RPM Legacy (CA) · 13-14 · PAC · Compare head to head

Athlete rating 117.6 2015 TF season
Best race 127.9 TF
Races 26
Seasons 2 2014 — 2015

RankedNation #5180·CA #467·Team #8 ?

Rating scale ?
Speed rating — all races

Track & Field

TF speed rating

2015 TF 117.4

RPM Legacy (CA) · Grade 13-14

Date Meet Event Result Place Rating Difficulty PR/SR Flags
2015-04-25 Revolution Express Track Club 400m 1:07.08 22nd · 3rd on team -0.024 SR
2015-04-25 Revolution Express Track Club 800m 2:51.66 7th · 2nd on team 117.6 -0.024 SR
2015-04-25 Revolution Express Track Club 200m 31.83 40th · 4th on team -0.024
2015-04-18 Shor/Sheppard Invitational 800m 2:52.95 16th · 2nd on team 117.1 -0.022 SR
2015-04-18 Shor/Sheppard Invitational 200m 31.7 33rd · 3rd on team -0.022 SR
2015-04-18 Shor/Sheppard Invitational 400m 1:12.57 13th · 2nd on team -0.022 SR
2015-03-28 Contra Costa Cheetahs 800m 2:53.67 17th · 1st on team 117.6 -0.017 SR RSR
2015-03-28 Contra Costa Cheetahs 200m 32.19 36th · 2nd on team -0.017 SR

2014 TF 117.5

RPM Legacy (CA) · Grade 13-14

Date Meet Event Result Place Rating Difficulty PR/SR Flags
2014-06-20 USATF Pacific Assoc. Junior Olympics (Top 8) 800m 2:36.84 15th · 1st on team 127.9 -0.031 ★PR ★R SR RSR
2014-06-20 USATF Pacific Assoc. Junior Olympics (Top 8) 400m 1:06.13 29th · 2nd on team -0.031 ★PR SR
2014-06-20 USATF Pacific Assoc. Junior Olympics (Top 8) 200m 31.01 54th · 4th on team -0.031
2014-05-31 Pacific Association Championships (PAC) 800m 2:41.84 21st · 3rd on team 125.0 -0.024 PR R SR RSR
2014-05-31 Pacific Association Championships (PAC) 400m 1:09.68 35th · 4th on team -0.024
2014-05-25 Los Angeles Jets Invitational 800m 2:55.83 41st · 1st on team 114.4 -0.028 R RSR
2014-05-25 Los Angeles Jets Invitational 200m 30.73 105th · 1st on team -0.028 ★PR SR
2014-05-25 Los Angeles Jets Invitational 400m 1:14.65 94th · 1st on team -0.028
2014-05-25 Los Angeles Jets Invitational 1500m 5:44.08 37th · 1st on team 121.8 -0.028 ★PR R SR RSR
2014-04-26 Revolution Express TC 800m 3:05.7 10th · 6th on team 108.4 -0.024
2014-04-26 Revolution Express TC 400m 1:09.12 25th · 4th on team -0.024 PR SR
2014-04-26 Revolution Express TC 200m 32.37 39th · 3rd on team -0.024 PR SR
2014-04-05 Sacramento Speed Showcase 200m 33.09 35th · 3rd on team -0.033 PR SR
2014-04-05 Sacramento Speed Showcase 800m 2:54.92 19th · 4th on team 114.4 -0.033 PR R SR RSR
2014-04-05 Sacramento Speed Showcase 400m 1:11.91 40th · 4th on team -0.033 PR SR
2014-03-22 RPM 400m 1:15.54 35th · 3rd on team -0.012 PR SR
2014-03-22 RPM 800m 3:03.9 20th · 4th on team 111.0 -0.012 PR R SR RSR
2014-03-22 RPM 100m 15.54 53rd · 3rd on team -0.012 ★PR SR